createdAt,value
2022-12-11T00:02:25.415Z,12.10
2022-12-11T00:04:53.906Z,12.20
2022-12-11T00:07:23.553Z,12.37
2022-12-11T00:09:51.981Z,11.97
2022-12-11T00:12:20.011Z,11.83
2022-12-11T00:14:50.132Z,12.27
2022-12-11T00:17:18.516Z,12.67
2022-12-11T00:19:47.514Z,12.17
2022-12-11T00:22:16.418Z,11.27
2022-12-11T00:24:49.257Z,12.07
2022-12-11T00:27:18.504Z,12.37
2022-12-11T00:29:46.841Z,12.20
2022-12-11T00:32:15.285Z,12.07
2022-12-11T00:34:46.704Z,11.70
2022-12-11T00:37:14.977Z,11.77
2022-12-11T00:39:44.083Z,12.03
2022-12-11T00:42:14.044Z,12.20
2022-12-11T00:44:44.853Z,12.37
2022-12-11T00:47:17.237Z,12.57
2022-12-11T00:49:49.995Z,11.77
2022-12-11T00:52:18.940Z,13.07
2022-12-11T00:54:47.287Z,13.63
2022-12-11T00:57:18.180Z,13.23
2022-12-11T00:59:47.975Z,13.63
2022-12-11T01:02:16.136Z,13.00
2022-12-11T01:04:44.565Z,14.33
2022-12-11T01:07:13.268Z,13.60
2022-12-11T01:09:58.680Z,11.93
2022-12-11T01:12:29.238Z,12.70
2022-12-11T01:14:59.978Z,11.97
2022-12-11T01:17:28.977Z,12.63
2022-12-11T01:20:00.593Z,12.97
2022-12-11T01:22:30.205Z,12.50
2022-12-11T01:24:59.390Z,13.30
2022-12-11T01:27:29.554Z,13.80
2022-12-11T01:30:00.807Z,12.57
2022-12-11T01:32:29.987Z,12.20
2022-12-11T01:34:58.407Z,12.63
2022-12-11T01:37:26.596Z,12.57
2022-12-11T01:39:54.935Z,12.63
2022-12-11T01:42:25.436Z,11.60
2022-12-11T01:45:42.175Z,11.33
2022-12-11T01:48:23.018Z,11.23
2022-12-11T01:50:53.951Z,11.47
2022-12-11T01:53:27.027Z,11.37
2022-12-11T01:55:57.841Z,10.93
2022-12-11T01:58:30.270Z,11.40
2022-12-11T02:01:00.318Z,10.50
2022-12-11T02:03:30.085Z,11.93
2022-12-11T02:06:01.390Z,10.43
2022-12-11T02:08:30.767Z,10.43
2022-12-11T02:11:12.318Z,10.53
2022-12-11T02:13:49.866Z,11.57
2022-12-11T02:16:23.524Z,12.23
2022-12-11T02:19:02.628Z,12.00
2022-12-11T02:21:37.133Z,11.10
2022-12-11T02:24:30.921Z,11.27
2022-12-11T02:27:24.465Z,11.23
2022-12-11T02:30:01.981Z,11.20
2022-12-11T02:32:37.150Z,12.00
2022-12-11T02:35:13.673Z,11.67
2022-12-11T02:37:45.833Z,10.83
2022-12-11T02:40:18.402Z,11.63
2022-12-11T02:42:50.095Z,11.30
2022-12-11T02:45:22.470Z,11.27
2022-12-11T02:47:55.372Z,10.90
2022-12-11T02:50:25.048Z,11.33
2022-12-11T02:52:57.207Z,11.77
2022-12-11T02:55:28.684Z,11.23
2022-12-11T02:58:04.743Z,11.60
2022-12-11T03:00:36.484Z,11.97
2022-12-11T03:03:04.864Z,11.57
2022-12-11T03:05:33.797Z,11.43
2022-12-11T03:08:03.667Z,11.57
2022-12-11T03:10:31.882Z,11.03
2022-12-11T03:13:01.730Z,11.30
2022-12-11T03:15:39.677Z,10.70
2022-12-11T03:18:15.377Z,11.27
2022-12-11T03:20:47.772Z,10.90
2022-12-11T03:23:22.781Z,10.47
2022-12-11T03:25:57.450Z,10.80
2022-12-11T03:28:33.391Z,11.90
2022-12-11T03:31:08.792Z,11.07
2022-12-11T03:33:41.418Z,11.47
2022-12-11T03:36:12.687Z,11.77
2022-12-11T03:38:49.649Z,12.53
2022-12-11T03:41:22.223Z,11.47
2022-12-11T03:43:54.693Z,12.30
2022-12-11T03:46:29.909Z,11.40
2022-12-11T03:49:00.896Z,11.77
2022-12-11T03:51:31.667Z,12.47
2022-12-11T03:54:01.257Z,12.83
2022-12-11T03:56:33.164Z,12.07
2022-12-11T03:59:01.558Z,12.27
2022-12-11T04:01:32.228Z,12.23
2022-12-11T04:04:00.489Z,12.93
2022-12-11T04:06:30.564Z,13.17
2022-12-11T04:08:59.010Z,12.57
2022-12-11T04:11:35.803Z,13.13
2022-12-11T04:14:22.215Z,13.07
2022-12-11T04:16:52.994Z,13.13
2022-12-11T04:19:41.754Z,13.33
2022-12-11T04:22:28.011Z,13.17
2022-12-11T04:24:57.461Z,12.83
2022-12-11T04:27:43.454Z,12.97
2022-12-11T04:30:18.382Z,13.17
2022-12-11T04:32:48.716Z,12.67
2022-12-11T04:35:18.093Z,12.40
2022-12-11T04:37:46.620Z,12.60
2022-12-11T04:40:18.777Z,13.03
2022-12-11T04:42:48.164Z,12.67
2022-12-11T04:45:17.230Z,12.93
2022-12-11T04:47:45.682Z,13.57
2022-12-11T04:50:19.472Z,13.43
2022-12-11T04:52:47.630Z,13.53
2022-12-11T04:55:17.858Z,13.53
2022-12-11T04:57:46.669Z,14.03
2022-12-11T05:00:16.599Z,14.23
2022-12-11T05:02:46.626Z,13.53
2022-12-11T05:05:16.466Z,12.80
2022-12-11T05:07:46.361Z,13.00
2022-12-11T05:10:15.063Z,13.13
2022-12-11T05:12:44.516Z,13.33
2022-12-11T05:15:12.875Z,13.43
2022-12-11T05:17:41.175Z,13.10
2022-12-11T05:20:11.167Z,13.70
2022-12-11T05:22:42.026Z,13.00
2022-12-11T05:25:11.467Z,13.23
2022-12-11T05:27:40.098Z,13.27
2022-12-11T05:30:11.551Z,13.80
2022-12-11T05:32:41.236Z,13.50
2022-12-11T05:35:10.357Z,14.37
2022-12-11T05:37:39.406Z,13.87
2022-12-11T05:40:13.615Z,13.40
2022-12-11T05:42:42.259Z,13.83
2022-12-11T05:45:12.350Z,14.60
2022-12-11T05:47:41.996Z,14.10
2022-12-11T05:50:11.167Z,13.80
2022-12-11T05:52:39.867Z,13.53
2022-12-11T05:55:12.412Z,13.23
2022-12-11T05:57:43.457Z,14.00
2022-12-11T06:00:14.638Z,14.57
2022-12-11T06:02:44.671Z,15.43
2022-12-11T06:05:13.582Z,15.50
2022-12-11T06:07:42.199Z,14.13
2022-12-11T06:10:12.699Z,15.17
2022-12-11T06:12:41.078Z,15.07
2022-12-11T06:15:10.847Z,15.87
2022-12-11T06:17:39.613Z,15.27
2022-12-11T06:20:08.850Z,16.80
2022-12-11T06:22:37.209Z,16.77
2022-12-11T06:25:06.367Z,16.00
2022-12-11T06:27:35.928Z,15.03
2022-12-11T06:30:04.076Z,15.43
2022-12-11T06:32:32.205Z,15.30
2022-12-11T06:35:02.308Z,15.17
2022-12-11T06:37:30.670Z,15.37
2022-12-11T06:39:58.833Z,16.03
2022-12-11T06:42:27.001Z,16.23
2022-12-11T06:44:59.902Z,15.17
2022-12-11T06:47:28.356Z,15.33
2022-12-11T06:49:57.448Z,15.47
2022-12-11T06:52:28.665Z,15.13
2022-12-11T06:54:57.586Z,16.43
2022-12-11T06:57:26.200Z,16.30
2022-12-11T06:59:54.661Z,15.27
2022-12-11T07:02:24.512Z,16.23
2022-12-11T07:04:55.181Z,15.97
2022-12-11T07:07:24.157Z,15.47
2022-12-11T07:09:53.189Z,16.07
2022-12-11T07:12:21.575Z,14.67
2022-12-11T07:14:53.531Z,17.67
2022-12-11T07:17:25.699Z,15.77
2022-12-11T07:19:55.790Z,15.17
2022-12-11T07:22:28.819Z,15.87
2022-12-11T07:24:58.632Z,15.77
2022-12-11T07:27:26.853Z,15.23
2022-12-11T07:29:55.749Z,16.10
2022-12-11T07:32:26.092Z,16.47
2022-12-11T07:34:54.683Z,15.77
2022-12-11T07:37:23.245Z,15.87
2022-12-11T07:39:51.458Z,16.83
2022-12-11T07:42:19.923Z,17.07
2022-12-11T07:44:48.119Z,15.90
2022-12-11T07:47:16.435Z,19.10
2022-12-11T07:49:49.167Z,17.07
2022-12-11T07:52:18.982Z,29.53
2022-12-11T07:54:47.180Z,16.83
2022-12-11T07:57:15.792Z,16.67
2022-12-11T07:59:45.266Z,27.70
2022-12-11T08:02:13.858Z,19.00
2022-12-11T08:04:42.342Z,17.87
2022-12-11T08:07:15.702Z,20.70
2022-12-11T08:09:44.392Z,20.53
2022-12-11T08:12:13.715Z,20.67
2022-12-11T08:14:42.256Z,18.37
2022-12-11T08:17:11.067Z,24.67
2022-12-11T08:19:39.124Z,25.43
2022-12-11T08:22:07.476Z,34.83
2022-12-11T08:24:37.463Z,60.70
2022-12-11T08:27:05.764Z,28.60
2022-12-11T08:29:34.032Z,23.33
2022-12-11T08:32:05.292Z,36.87
2022-12-11T08:34:37.390Z,28.13
2022-12-11T08:37:06.166Z,23.23
2022-12-11T08:39:35.412Z,16.63
2022-12-11T08:42:05.435Z,16.80
2022-12-11T08:44:37.090Z,16.80
2022-12-11T08:47:05.723Z,17.50
2022-12-11T08:49:34.736Z,18.33
2022-12-11T08:52:04.437Z,20.93
2022-12-11T08:54:32.795Z,17.47
2022-12-11T08:57:02.709Z,18.60
2022-12-11T08:59:32.657Z,23.53
2022-12-11T09:02:02.485Z,23.20
2022-12-11T09:04:30.913Z,22.07
2022-12-11T09:06:59.101Z,20.20
2022-12-11T09:09:29.687Z,15.30
2022-12-11T09:12:01.761Z,17.70
2022-12-11T09:14:32.099Z,22.30
2022-12-11T09:17:03.391Z,19.63
2022-12-11T09:19:32.890Z,14.77
2022-12-11T09:22:01.996Z,14.37
2022-12-11T09:24:31.008Z,13.80
2022-12-11T09:26:59.803Z,14.93
2022-12-11T09:29:28.349Z,12.13
2022-12-11T09:31:58.520Z,12.67
2022-12-11T09:34:29.494Z,13.30
2022-12-11T09:36:58.431Z,13.17
2022-12-11T09:39:27.224Z,14.87
2022-12-11T09:42:03.455Z,12.13
2022-12-11T09:44:45.723Z,12.33
2022-12-11T09:47:23.845Z,26.97
2022-12-11T09:49:58.762Z,19.93
2022-12-11T09:52:38.979Z,15.57
2022-12-11T09:55:20.960Z,14.33
2022-12-11T09:58:01.727Z,14.10
2022-12-11T10:00:38.431Z,15.10
2022-12-11T10:03:34.218Z,13.77
2022-12-11T10:06:09.082Z,13.87
2022-12-11T10:08:43.929Z,16.33
2022-12-11T10:11:31.548Z,15.00
2022-12-11T10:14:08.425Z,14.03
2022-12-11T10:16:41.204Z,15.40
2022-12-11T10:19:18.799Z,19.20
2022-12-11T10:21:48.465Z,17.67
2022-12-11T10:24:48.933Z,16.87
2022-12-11T10:27:19.426Z,13.70
2022-12-11T10:29:48.543Z,17.67
2022-12-11T10:32:25.959Z,13.87
2022-12-11T10:35:04.112Z,12.93
2022-12-11T10:37:32.692Z,12.47
2022-12-11T10:40:02.324Z,55.07
2022-12-11T10:42:38.931Z,15.13
2022-12-11T10:45:17.941Z,13.60
2022-12-11T10:47:46.516Z,11.93
2022-12-11T10:50:27.253Z,18.20
2022-12-11T10:52:55.418Z,14.93
2022-12-11T10:55:29.071Z,13.37
2022-12-11T10:58:01.133Z,11.87
2022-12-11T11:00:37.701Z,11.53
2022-12-11T11:03:07.813Z,11.77
2022-12-11T11:05:39.159Z,11.93
2022-12-11T11:08:16.559Z,11.50
2022-12-11T11:10:56.849Z,12.17
2022-12-11T11:13:27.059Z,11.33
2022-12-11T11:16:09.980Z,13.03
2022-12-11T11:18:40.272Z,11.20
2022-12-11T11:21:17.404Z,10.10
2022-12-11T11:23:51.910Z,9.40
2022-12-11T11:26:23.231Z,9.47
2022-12-11T11:28:54.996Z,11.30
2022-12-11T11:31:39.435Z,9.07
2022-12-11T11:34:11.701Z,7.90
2022-12-11T11:36:42.914Z,7.80
2022-12-11T11:39:23.002Z,8.97
2022-12-11T11:41:57.651Z,8.43
2022-12-11T11:44:30.729Z,7.53
2022-12-11T11:47:06.175Z,7.67
2022-12-11T11:49:48.422Z,7.40
2022-12-11T11:52:25.396Z,7.33
2022-12-11T11:55:06.954Z,5.70
2022-12-11T11:57:43.957Z,5.60
2022-12-11T12:00:20.924Z,5.93
2022-12-11T12:02:51.486Z,7.70
2022-12-11T12:05:27.566Z,6.17
2022-12-11T12:08:16.650Z,5.53
2022-12-11T12:10:51.522Z,6.17
2022-12-11T12:19:38.354Z,6.30
2022-12-11T12:22:18.318Z,5.50
2022-12-11T12:24:55.448Z,5.10
2022-12-11T12:30:23.251Z,4.60
2022-12-11T12:33:05.838Z,5.17
2022-12-11T12:35:43.734Z,5.83
2022-12-11T12:38:18.811Z,4.90
2022-12-11T12:41:05.770Z,4.90
2022-12-11T12:43:58.796Z,5.33
2022-12-11T12:46:44.157Z,4.63
2022-12-11T12:49:18.210Z,5.30
2022-12-11T12:51:48.048Z,7.50
2022-12-11T12:54:21.894Z,4.70
2022-12-11T12:56:51.585Z,5.37
2022-12-11T12:59:22.335Z,4.90
2022-12-11T13:01:55.314Z,5.40
2022-12-11T13:07:30.240Z,4.00
2022-12-11T13:10:02.326Z,4.57
2022-12-11T13:12:50.183Z,4.50
2022-12-11T13:15:36.471Z,4.83
2022-12-11T13:18:27.539Z,4.80
2022-12-11T13:20:57.899Z,4.50
2022-12-11T13:23:33.129Z,4.43
2022-12-11T13:26:03.515Z,4.80
2022-12-11T13:28:36.195Z,4.70
2022-12-11T13:31:08.967Z,4.60
2022-12-11T13:33:44.828Z,5.20
2022-12-11T13:36:37.825Z,5.70
2022-12-11T13:39:17.253Z,6.07
2022-12-11T13:41:48.825Z,6.00
2022-12-11T13:44:31.876Z,8.00
2022-12-11T13:47:03.859Z,6.97
2022-12-11T13:49:37.532Z,7.50
2022-12-11T13:52:12.006Z,7.73
2022-12-11T13:54:50.612Z,8.90
2022-12-11T13:57:25.506Z,8.10
2022-12-11T13:59:55.507Z,7.47
2022-12-11T14:02:27.495Z,6.97
2022-12-11T14:04:58.690Z,5.90
2022-12-11T14:07:33.553Z,6.50
2022-12-11T14:10:05.259Z,6.77
2022-12-11T14:12:34.782Z,7.30
2022-12-11T14:15:06.186Z,6.70
2022-12-11T14:17:36.676Z,6.77
2022-12-11T14:20:08.986Z,8.00
2022-12-11T14:22:38.994Z,8.40
2022-12-11T14:25:21.973Z,9.97
2022-12-11T14:27:53.204Z,8.53
2022-12-11T14:30:25.433Z,7.37
2022-12-11T14:32:56.874Z,7.17
2022-12-11T14:35:35.563Z,7.27
2022-12-11T14:38:15.002Z,8.60
2022-12-11T14:40:46.605Z,8.70
2022-12-11T14:43:22.238Z,8.67
2022-12-11T14:45:56.196Z,9.50
2022-12-11T14:48:29.870Z,7.47
2022-12-11T14:51:03.179Z,7.40
2022-12-11T14:53:40.092Z,7.00
2022-12-11T14:56:18.316Z,9.47
2022-12-11T14:58:51.551Z,10.27
2022-12-11T15:01:25.319Z,8.93
2022-12-11T15:04:04.325Z,8.00
2022-12-11T15:06:36.743Z,7.63
2022-12-11T15:09:19.835Z,9.77
2022-12-11T15:11:50.534Z,9.00
2022-12-11T15:14:21.662Z,7.83
2022-12-11T15:16:52.096Z,6.80
2022-12-11T15:19:25.158Z,7.10
2022-12-11T15:21:53.924Z,13.57
2022-12-11T15:24:44.544Z,16.90
2022-12-11T15:27:28.638Z,10.63
2022-12-11T15:29:57.158Z,11.20
2022-12-11T15:32:26.616Z,11.37
2022-12-11T15:34:58.789Z,11.47
2022-12-11T15:37:33.303Z,11.07
2022-12-11T15:40:05.356Z,9.23
2022-12-11T15:42:37.265Z,9.47
2022-12-11T15:45:11.216Z,10.13
2022-12-11T15:47:39.980Z,9.20
2022-12-11T15:50:17.213Z,10.23
2022-12-11T15:52:47.653Z,11.40
2022-12-11T15:55:20.782Z,10.50
2022-12-11T15:57:53.175Z,11.83
2022-12-11T16:00:26.548Z,9.43
2022-12-11T16:02:57.547Z,9.13
2022-12-11T16:05:26.905Z,8.50
2022-12-11T16:08:00.521Z,7.97
2022-12-11T16:10:30.544Z,7.87
2022-12-11T16:12:59.903Z,8.73
2022-12-11T16:15:29.168Z,8.67
2022-12-11T16:18:05.012Z,9.10
2022-12-11T16:20:34.159Z,9.10
2022-12-11T16:23:02.953Z,16.10
2022-12-11T16:25:34.276Z,15.33
2022-12-11T16:28:03.369Z,12.00
2022-12-11T16:30:32.252Z,11.43
2022-12-11T16:33:11.730Z,11.23
2022-12-11T16:35:43.440Z,22.27
2022-12-11T16:38:12.750Z,14.10
2022-12-11T16:40:42.975Z,11.87
2022-12-11T16:43:11.701Z,18.03
2022-12-11T16:45:41.096Z,28.13
2022-12-11T16:48:09.592Z,26.80
2022-12-11T16:50:40.995Z,21.87
2022-12-11T16:53:09.273Z,17.03
2022-12-11T16:55:38.626Z,18.80
2022-12-11T16:58:09.677Z,14.13
2022-12-11T17:00:38.426Z,11.70
2022-12-11T17:03:07.582Z,10.27
2022-12-11T17:05:39.567Z,10.13
2022-12-11T17:08:08.583Z,10.70
2022-12-11T17:10:43.405Z,10.53
2022-12-11T17:13:13.383Z,13.60
2022-12-11T17:15:42.826Z,15.60
2022-12-11T17:18:13.744Z,13.57
2022-12-11T17:20:43.258Z,11.77
2022-12-11T17:23:11.985Z,12.47
2022-12-11T17:25:42.792Z,12.20
2022-12-11T17:28:14.278Z,12.03
2022-12-11T17:30:43.633Z,10.73
2022-12-11T17:33:14.072Z,10.67
2022-12-11T17:35:43.057Z,10.93
2022-12-11T17:38:16.667Z,11.57
2022-12-11T17:40:47.953Z,11.63
2022-12-11T17:43:17.937Z,11.17
2022-12-11T17:45:49.569Z,9.50
2022-12-11T17:48:19.791Z,9.70
2022-12-11T17:50:49.243Z,9.33
2022-12-11T17:53:21.404Z,8.70
2022-12-11T17:55:52.007Z,8.17
2022-12-11T17:58:30.760Z,7.67
2022-12-11T18:01:01.268Z,8.60
2022-12-11T18:03:30.562Z,9.63
2022-12-11T18:06:04.570Z,9.30
2022-12-11T18:08:33.487Z,8.93
2022-12-11T18:11:07.046Z,8.03
2022-12-11T18:13:37.906Z,9.80
2022-12-11T18:16:09.127Z,9.80
2022-12-11T18:18:39.916Z,13.63
2022-12-11T18:21:08.568Z,13.37
2022-12-11T18:23:37.545Z,9.83
2022-12-11T18:26:06.102Z,11.00
2022-12-11T18:28:34.982Z,9.90
2022-12-11T18:31:05.826Z,8.80
2022-12-11T18:33:37.168Z,9.40
2022-12-11T18:36:06.198Z,8.60
2022-12-11T18:38:35.626Z,9.77
2022-12-11T18:41:05.408Z,8.87
2022-12-11T18:43:33.939Z,9.77
2022-12-11T18:46:09.342Z,66.07
2022-12-11T18:48:38.075Z,12.87
2022-12-11T18:51:10.035Z,11.80
2022-12-11T18:53:39.788Z,10.63
2022-12-11T18:56:11.299Z,12.77
2022-12-11T18:58:42.432Z,9.80
2022-12-11T19:01:18.012Z,8.70
2022-12-11T19:03:49.035Z,11.83
2022-12-11T19:06:20.802Z,14.17
2022-12-11T19:08:51.823Z,23.57
2022-12-11T19:11:22.516Z,16.50
2022-12-11T19:13:51.615Z,12.97
2022-12-11T19:16:27.456Z,10.43
2022-12-11T19:18:56.298Z,12.37
2022-12-11T19:21:24.830Z,16.73
2022-12-11T19:23:53.035Z,20.47
2022-12-11T19:26:24.724Z,13.43
2022-12-11T19:29:00.232Z,11.17
2022-12-11T19:31:35.926Z,11.43
2022-12-11T19:34:04.728Z,15.03
2022-12-11T19:36:35.238Z,14.37
2022-12-11T19:39:07.098Z,13.80
2022-12-11T19:41:38.323Z,12.50
2022-12-11T19:44:07.265Z,11.03
2022-12-11T19:46:37.407Z,11.23
2022-12-11T19:49:08.727Z,10.80
2022-12-11T19:51:39.871Z,10.33
2022-12-11T19:54:10.327Z,11.30
2022-12-11T19:56:38.696Z,11.33
2022-12-11T19:59:10.374Z,12.03
2022-12-11T20:01:40.304Z,11.73
2022-12-11T20:04:11.943Z,13.40
2022-12-11T20:06:44.556Z,14.23
2022-12-11T20:09:14.615Z,14.67
2022-12-11T20:11:48.026Z,16.87
2022-12-11T20:14:21.885Z,16.73
2022-12-11T20:17:11.348Z,16.83
2022-12-11T20:19:43.406Z,15.43
2022-12-11T20:22:12.489Z,17.70
2022-12-11T20:24:40.843Z,18.80
2022-12-11T20:27:09.583Z,19.63
2022-12-11T20:29:41.553Z,18.87
2022-12-11T20:32:12.994Z,18.53
2022-12-11T20:34:42.350Z,19.20
2022-12-11T20:37:10.568Z,20.23
2022-12-11T20:39:38.740Z,19.00
2022-12-11T20:42:11.272Z,21.90
2022-12-11T20:44:42.775Z,20.47
2022-12-11T20:47:22.567Z,19.80
2022-12-11T20:49:52.847Z,19.40
2022-12-11T20:52:22.595Z,21.03
2022-12-11T20:54:52.531Z,23.37
2022-12-11T20:57:21.805Z,22.03
2022-12-11T20:59:50.129Z,22.60
2022-12-11T21:02:20.447Z,20.33
2022-12-11T21:04:48.709Z,23.20
2022-12-11T21:07:20.349Z,21.20
2022-12-11T21:09:48.739Z,20.73
2022-12-11T21:12:17.276Z,20.23
2022-12-11T21:14:45.602Z,20.67
2022-12-11T21:17:15.971Z,20.07
2022-12-11T21:19:45.574Z,20.67
2022-12-11T21:22:15.134Z,19.97
2022-12-11T21:24:43.634Z,20.30
2022-12-11T21:27:13.509Z,21.70
2022-12-11T21:29:42.265Z,21.23
2022-12-11T21:32:11.727Z,20.27
2022-12-11T21:34:40.999Z,20.70
2022-12-11T21:37:11.920Z,22.17
2022-12-11T21:39:40.181Z,22.87
2022-12-11T21:42:08.747Z,23.13
2022-12-11T21:47:27.874Z,24.50
2022-12-11T21:49:56.681Z,19.87
2022-12-11T21:52:27.238Z,19.03
2022-12-11T21:54:56.786Z,21.40
2022-12-11T21:57:27.026Z,20.40
2022-12-11T21:59:56.175Z,20.70
2022-12-11T22:02:25.259Z,20.80
2022-12-11T22:04:53.779Z,21.70
2022-12-11T22:07:22.590Z,20.50
2022-12-11T22:09:52.992Z,19.47
2022-12-11T22:12:29.200Z,19.83
2022-12-11T22:14:57.685Z,19.93
2022-12-11T22:17:25.870Z,23.77
2022-12-11T22:19:54.590Z,21.40
2022-12-11T22:22:24.503Z,20.57
2022-12-11T22:24:54.444Z,20.07
2022-12-11T22:27:24.441Z,26.80
2022-12-11T22:29:53.222Z,34.57
2022-12-11T22:32:21.468Z,23.13
2022-12-11T22:34:50.059Z,20.23
2022-12-11T22:37:20.083Z,20.33
2022-12-11T22:39:49.745Z,22.37
2022-12-11T22:42:20.053Z,21.50
2022-12-11T22:44:48.689Z,28.83
2022-12-11T22:47:18.436Z,22.10
2022-12-11T22:49:47.647Z,23.60
2022-12-11T22:52:16.620Z,23.07
2022-12-11T22:54:46.624Z,22.30
2022-12-11T22:57:15.150Z,21.77
2022-12-11T22:59:44.721Z,21.30
2022-12-11T23:02:13.220Z,20.60
2022-12-11T23:04:41.674Z,21.00
2022-12-11T23:07:10.383Z,20.67
2022-12-11T23:09:38.533Z,22.17
2022-12-11T23:12:07.384Z,22.07
2022-12-11T23:14:35.854Z,21.60
2022-12-11T23:17:05.966Z,21.60
2022-12-11T23:19:36.496Z,22.37
2022-12-11T23:22:05.692Z,21.93
2022-12-11T23:24:34.642Z,23.43
2022-12-11T23:27:05.879Z,23.37
2022-12-11T23:29:34.207Z,22.00
2022-12-11T23:32:02.852Z,22.87
2022-12-11T23:34:34.188Z,22.70
2022-12-11T23:37:02.777Z,22.90
2022-12-11T23:39:32.551Z,23.23
2022-12-11T23:42:01.664Z,24.60
2022-12-11T23:44:29.795Z,23.07
2022-12-11T23:46:59.602Z,24.67
2022-12-11T23:49:28.312Z,24.83
2022-12-11T23:51:58.433Z,25.47
2022-12-11T23:54:28.328Z,24.40
2022-12-11T23:56:56.481Z,23.90
2022-12-11T23:59:25.005Z,23.80
